sensor_id;sensor_type;location;lat;lon;timestamp;P1;durP1;ratioP1;P2;durP2;ratioP2
41077;SDS011;26823;42.662;23.352;2023-05-14T00:01:07;3.50;;;2.45;;
41077;SDS011;26823;42.662;23.352;2023-05-14T00:03:32;6.28;;;2.72;;
41077;SDS011;26823;42.662;23.352;2023-05-14T00:05:58;3.42;;;2.53;;
41077;SDS011;26823;42.662;23.352;2023-05-14T00:08:23;2.90;;;2.60;;
41077;SDS011;26823;42.662;23.352;2023-05-14T00:10:49;2.60;;;2.40;;
41077;SDS011;26823;42.662;23.352;2023-05-14T00:13:14;3.97;;;2.88;;
41077;SDS011;26823;42.662;23.352;2023-05-14T00:15:40;3.17;;;2.88;;
41077;SDS011;26823;42.662;23.352;2023-05-14T00:18:05;3.78;;;2.70;;
41077;SDS011;26823;42.662;23.352;2023-05-14T00:20:31;6.30;;;2.83;;
41077;SDS011;26823;42.662;23.352;2023-05-14T00:22:56;3.63;;;2.63;;
41077;SDS011;26823;42.662;23.352;2023-05-14T00:25:22;4.78;;;2.97;;
41077;SDS011;26823;42.662;23.352;2023-05-14T00:27:47;3.53;;;2.47;;
41077;SDS011;26823;42.662;23.352;2023-05-14T00:30:12;3.88;;;3.05;;
41077;SDS011;26823;42.662;23.352;2023-05-14T00:32:38;3.47;;;2.80;;
41077;SDS011;26823;42.662;23.352;2023-05-14T00:35:03;5.88;;;3.25;;
41077;SDS011;26823;42.662;23.352;2023-05-14T00:37:29;4.63;;;2.75;;
41077;SDS011;26823;42.662;23.352;2023-05-14T00:39:55;5.45;;;2.97;;
41077;SDS011;26823;42.662;23.352;2023-05-14T00:42:20;2.83;;;2.63;;
41077;SDS011;26823;42.662;23.352;2023-05-14T00:44:46;4.57;;;2.80;;
41077;SDS011;26823;42.662;23.352;2023-05-14T00:47:11;3.30;;;2.50;;
41077;SDS011;26823;42.662;23.352;2023-05-14T00:49:37;2.60;;;2.40;;
41077;SDS011;26823;42.662;23.352;2023-05-14T00:52:04;3.97;;;2.60;;
41077;SDS011;26823;42.662;23.352;2023-05-14T00:54:30;5.50;;;2.85;;
41077;SDS011;26823;42.662;23.352;2023-05-14T00:56:56;3.90;;;2.67;;
41077;SDS011;26823;42.662;23.352;2023-05-14T00:59:22;3.67;;;2.50;;
41077;SDS011;26823;42.662;23.352;2023-05-14T01:01:47;5.10;;;2.67;;
41077;SDS011;26823;42.662;23.352;2023-05-14T01:04:13;3.22;;;2.35;;
41077;SDS011;26823;42.662;23.352;2023-05-14T01:06:58;3.45;;;2.78;;
41077;SDS011;26823;42.662;23.352;2023-05-14T01:15:00;4.72;;;2.72;;
41077;SDS011;26823;42.662;23.352;2023-05-14T01:17:28;4.75;;;2.70;;
41077;SDS011;26823;42.662;23.352;2023-05-14T01:19:56;5.68;;;2.38;;
41077;SDS011;26823;42.662;23.352;2023-05-14T01:22:23;4.45;;;2.53;;
41077;SDS011;26823;42.662;23.352;2023-05-14T01:24:48;2.53;;;2.30;;
41077;SDS011;26823;42.662;23.352;2023-05-14T01:27:19;3.85;;;3.15;;
41077;SDS011;26823;42.662;23.352;2023-05-14T01:32:46;2.50;;;2.15;;
41077;SDS011;26823;42.662;23.352;2023-05-14T01:35:15;2.50;;;2.30;;
41077;SDS011;26823;42.662;23.352;2023-05-14T01:37:48;2.83;;;2.50;;
41077;SDS011;26823;42.662;23.352;2023-05-14T01:40:15;2.65;;;2.20;;
41077;SDS011;26823;42.662;23.352;2023-05-14T01:42:41;2.90;;;2.40;;
41077;SDS011;26823;42.662;23.352;2023-05-14T01:45:07;2.88;;;2.20;;
41077;SDS011;26823;42.662;23.352;2023-05-14T01:47:33;2.95;;;2.63;;
41077;SDS011;26823;42.662;23.352;2023-05-14T01:49:58;2.63;;;2.10;;
41077;SDS011;26823;42.662;23.352;2023-05-14T01:52:24;2.85;;;2.20;;
41077;SDS011;26823;42.662;23.352;2023-05-14T01:54:49;5.70;;;2.67;;
41077;SDS011;26823;42.662;23.352;2023-05-14T01:57:15;2.85;;;2.50;;
41077;SDS011;26823;42.662;23.352;2023-05-14T01:59:40;3.78;;;2.97;;
41077;SDS011;26823;42.662;23.352;2023-05-14T02:02:06;2.40;;;2.20;;
41077;SDS011;26823;42.662;23.352;2023-05-14T02:04:31;2.80;;;2.42;;
41077;SDS011;26823;42.662;23.352;2023-05-14T02:06:57;4.47;;;2.35;;
41077;SDS011;26823;42.662;23.352;2023-05-14T02:09:22;2.63;;;2.13;;
41077;SDS011;26823;42.662;23.352;2023-05-14T02:11:48;2.63;;;2.33;;
41077;SDS011;26823;42.662;23.352;2023-05-14T02:14:13;4.38;;;2.47;;
41077;SDS011;26823;42.662;23.352;2023-05-14T02:16:39;3.20;;;2.55;;
41077;SDS011;26823;42.662;23.352;2023-05-14T02:19:05;3.17;;;2.90;;
41077;SDS011;26823;42.662;23.352;2023-05-14T02:21:30;3.13;;;2.40;;
41077;SDS011;26823;42.662;23.352;2023-05-14T02:23:56;8.63;;;2.40;;
41077;SDS011;26823;42.662;23.352;2023-05-14T02:26:22;2.28;;;2.05;;
41077;SDS011;26823;42.662;23.352;2023-05-14T02:28:47;3.42;;;2.35;;
41077;SDS011;26823;42.662;23.352;2023-05-14T02:31:12;3.63;;;2.78;;
41077;SDS011;26823;42.662;23.352;2023-05-14T02:33:38;2.75;;;2.22;;
41077;SDS011;26823;42.662;23.352;2023-05-14T02:36:03;4.00;;;2.17;;
41077;SDS011;26823;42.662;23.352;2023-05-14T02:38:29;3.53;;;2.53;;
41077;SDS011;26823;42.662;23.352;2023-05-14T02:40:54;6.68;;;2.42;;
41077;SDS011;26823;42.662;23.352;2023-05-14T02:43:20;3.08;;;2.15;;
41077;SDS011;26823;42.662;23.352;2023-05-14T02:45:45;3.90;;;2.45;;
41077;SDS011;26823;42.662;23.352;2023-05-14T02:48:11;2.45;;;2.25;;
41077;SDS011;26823;42.662;23.352;2023-05-14T02:50:36;2.45;;;2.15;;
41077;SDS011;26823;42.662;23.352;2023-05-14T02:53:02;4.20;;;1.90;;
41077;SDS011;26823;42.662;23.352;2023-05-14T02:55:27;2.92;;;2.45;;
41077;SDS011;26823;42.662;23.352;2023-05-14T02:57:53;5.22;;;2.30;;
41077;SDS011;26823;42.662;23.352;2023-05-14T03:00:18;5.15;;;2.85;;
41077;SDS011;26823;42.662;23.352;2023-05-14T03:02:44;3.85;;;2.42;;
41077;SDS011;26823;42.662;23.352;2023-05-14T03:05:09;2.75;;;2.20;;
41077;SDS011;26823;42.662;23.352;2023-05-14T03:07:35;3.95;;;2.50;;
41077;SDS011;26823;42.662;23.352;2023-05-14T03:10:00;10.80;;;2.90;;
41077;SDS011;26823;42.662;23.352;2023-05-14T03:12:26;2.92;;;2.30;;
41077;SDS011;26823;42.662;23.352;2023-05-14T03:14:51;2.80;;;2.35;;
41077;SDS011;26823;42.662;23.352;2023-05-14T03:17:16;4.68;;;2.40;;
41077;SDS011;26823;42.662;23.352;2023-05-14T03:19:42;2.58;;;2.17;;
41077;SDS011;26823;42.662;23.352;2023-05-14T03:22:07;3.10;;;2.00;;
41077;SDS011;26823;42.662;23.352;2023-05-14T03:24:33;4.10;;;2.45;;
41077;SDS011;26823;42.662;23.352;2023-05-14T03:27:05;2.50;;;2.30;;
41077;SDS011;26823;42.662;23.352;2023-05-14T03:29:30;3.00;;;2.75;;
41077;SDS011;26823;42.662;23.352;2023-05-14T03:31:56;3.25;;;2.20;;
41077;SDS011;26823;42.662;23.352;2023-05-14T03:34:21;2.47;;;1.98;;
41077;SDS011;26823;42.662;23.352;2023-05-14T03:36:47;2.40;;;2.13;;
41077;SDS011;26823;42.662;23.352;2023-05-14T03:39:12;3.17;;;2.38;;
41077;SDS011;26823;42.662;23.352;2023-05-14T03:41:44;3.85;;;2.42;;
41077;SDS011;26823;42.662;23.352;2023-05-14T03:44:10;5.68;;;2.72;;
41077;SDS011;26823;42.662;23.352;2023-05-14T03:46:36;3.83;;;2.50;;
41077;SDS011;26823;42.662;23.352;2023-05-14T03:49:02;4.25;;;3.10;;
41077;SDS011;26823;42.662;23.352;2023-05-14T03:51:27;4.75;;;2.70;;
41077;SDS011;26823;42.662;23.352;2023-05-14T03:53:52;3.50;;;2.65;;
41077;SDS011;26823;42.662;23.352;2023-05-14T03:56:18;3.03;;;2.72;;
41077;SDS011;26823;42.662;23.352;2023-05-14T03:58:43;3.97;;;2.83;;
41077;SDS011;26823;42.662;23.352;2023-05-14T04:01:09;2.95;;;2.30;;
41077;SDS011;26823;42.662;23.352;2023-05-14T04:03:34;5.15;;;2.40;;
41077;SDS011;26823;42.662;23.352;2023-05-14T04:06:00;2.75;;;2.25;;
41077;SDS011;26823;42.662;23.352;2023-05-14T04:08:25;2.60;;;2.40;;
41077;SDS011;26823;42.662;23.352;2023-05-14T04:10:51;4.22;;;2.50;;
41077;SDS011;26823;42.662;23.352;2023-05-14T04:13:16;2.85;;;2.60;;
41077;SDS011;26823;42.662;23.352;2023-05-14T04:15:41;4.00;;;2.80;;
41077;SDS011;26823;42.662;23.352;2023-05-14T04:18:07;4.78;;;2.60;;
41077;SDS011;26823;42.662;23.352;2023-05-14T04:20:32;6.57;;;2.92;;
41077;SDS011;26823;42.662;23.352;2023-05-14T04:23:03;4.22;;;2.47;;
41077;SDS011;26823;42.662;23.352;2023-05-14T04:25:29;3.00;;;2.60;;
41077;SDS011;26823;42.662;23.352;2023-05-14T04:27:54;4.35;;;2.90;;
41077;SDS011;26823;42.662;23.352;2023-05-14T04:30:20;3.67;;;2.30;;
41077;SDS011;26823;42.662;23.352;2023-05-14T04:32:45;2.50;;;2.30;;
41077;SDS011;26823;42.662;23.352;2023-05-14T04:35:11;6.30;;;2.45;;
41077;SDS011;26823;42.662;23.352;2023-05-14T04:37:37;4.18;;;2.67;;
41077;SDS011;26823;42.662;23.352;2023-05-14T04:40:03;2.78;;;2.55;;
41077;SDS011;26823;42.662;23.352;2023-05-14T04:42:29;3.28;;;2.85;;
41077;SDS011;26823;42.662;23.352;2023-05-14T04:44:55;3.15;;;2.72;;
41077;SDS011;26823;42.662;23.352;2023-05-14T04:47:20;2.83;;;2.55;;
41077;SDS011;26823;42.662;23.352;2023-05-14T04:49:46;3.42;;;2.70;;
41077;SDS011;26823;42.662;23.352;2023-05-14T04:52:12;2.65;;;2.42;;
41077;SDS011;26823;42.662;23.352;2023-05-14T04:54:37;4.05;;;2.55;;
41077;SDS011;26823;42.662;23.352;2023-05-14T04:57:03;3.55;;;2.75;;
41077;SDS011;26823;42.662;23.352;2023-05-14T04:59:29;3.08;;;2.75;;
41077;SDS011;26823;42.662;23.352;2023-05-14T05:01:55;2.72;;;2.50;;
41077;SDS011;26823;42.662;23.352;2023-05-14T05:04:20;4.13;;;2.80;;
41077;SDS011;26823;42.662;23.352;2023-05-14T05:06:48;4.22;;;2.90;;
41077;SDS011;26823;42.662;23.352;2023-05-14T05:09:14;2.97;;;2.65;;
41077;SDS011;26823;42.662;23.352;2023-05-14T05:11:40;3.40;;;3.10;;
41077;SDS011;26823;42.662;23.352;2023-05-14T05:14:05;4.30;;;2.83;;
41077;SDS011;26823;42.662;23.352;2023-05-14T05:16:31;5.55;;;2.95;;
41077;SDS011;26823;42.662;23.352;2023-05-14T05:18:56;5.80;;;3.13;;
41077;SDS011;26823;42.662;23.352;2023-05-14T05:21:22;3.95;;;3.25;;
41077;SDS011;26823;42.662;23.352;2023-05-14T05:23:48;4.03;;;3.00;;
41077;SDS011;26823;42.662;23.352;2023-05-14T05:26:14;4.43;;;2.80;;
41077;SDS011;26823;42.662;23.352;2023-05-14T05:28:39;5.70;;;3.65;;
41077;SDS011;26823;42.662;23.352;2023-05-14T05:31:04;6.40;;;3.60;;
41077;SDS011;26823;42.662;23.352;2023-05-14T05:33:30;3.90;;;3.35;;
41077;SDS011;26823;42.662;23.352;2023-05-14T05:35:55;3.83;;;3.25;;
41077;SDS011;26823;42.662;23.352;2023-05-14T05:38:21;5.57;;;3.20;;
41077;SDS011;26823;42.662;23.352;2023-05-14T05:40:46;4.82;;;3.53;;
41077;SDS011;26823;42.662;23.352;2023-05-14T05:43:13;8.20;;;3.53;;
41077;SDS011;26823;42.662;23.352;2023-05-14T05:45:39;5.43;;;3.50;;
41077;SDS011;26823;42.662;23.352;2023-05-14T05:48:05;4.20;;;3.80;;
41077;SDS011;26823;42.662;23.352;2023-05-14T05:50:31;4.45;;;3.80;;
41077;SDS011;26823;42.662;23.352;2023-05-14T05:52:56;4.00;;;3.60;;
41077;SDS011;26823;42.662;23.352;2023-05-14T05:55:23;5.88;;;3.88;;
41077;SDS011;26823;42.662;23.352;2023-05-14T05:57:49;4.03;;;3.63;;
41077;SDS011;26823;42.662;23.352;2023-05-14T06:00:14;6.20;;;3.92;;
41077;SDS011;26823;42.662;23.352;2023-05-14T06:02:41;7.82;;;3.80;;
41077;SDS011;26823;42.662;23.352;2023-05-14T06:05:07;4.70;;;3.75;;
41077;SDS011;26823;42.662;23.352;2023-05-14T06:07:33;5.80;;;4.18;;
41077;SDS011;26823;42.662;23.352;2023-05-14T06:09:59;6.65;;;4.47;;
41077;SDS011;26823;42.662;23.352;2023-05-14T06:12:24;6.28;;;4.05;;
41077;SDS011;26823;42.662;23.352;2023-05-14T06:14:49;5.25;;;4.43;;
41077;SDS011;26823;42.662;23.352;2023-05-14T06:17:15;7.55;;;5.10;;
41077;SDS011;26823;42.662;23.352;2023-05-14T06:19:41;7.40;;;5.55;;
41077;SDS011;26823;42.662;23.352;2023-05-14T06:22:06;6.50;;;4.95;;
41077;SDS011;26823;42.662;23.352;2023-05-14T06:24:32;5.43;;;4.93;;
41077;SDS011;26823;42.662;23.352;2023-05-14T06:26:57;6.18;;;4.30;;
41077;SDS011;26823;42.662;23.352;2023-05-14T06:29:22;7.18;;;4.70;;
41077;SDS011;26823;42.662;23.352;2023-05-14T06:31:49;5.80;;;4.20;;
41077;SDS011;26823;42.662;23.352;2023-05-14T06:34:14;5.22;;;4.28;;
41077;SDS011;26823;42.662;23.352;2023-05-14T06:36:40;8.32;;;5.07;;
41077;SDS011;26823;42.662;23.352;2023-05-14T06:39:05;8.10;;;5.45;;
41077;SDS011;26823;42.662;23.352;2023-05-14T06:41:31;8.02;;;5.68;;
41077;SDS011;26823;42.662;23.352;2023-05-14T06:43:56;7.47;;;4.43;;
41077;SDS011;26823;42.662;23.352;2023-05-14T06:46:22;6.15;;;4.97;;
41077;SDS011;26823;42.662;23.352;2023-05-14T06:48:47;6.88;;;5.10;;
41077;SDS011;26823;42.662;23.352;2023-05-14T06:51:12;6.78;;;5.13;;
41077;SDS011;26823;42.662;23.352;2023-05-14T06:53:39;7.80;;;5.50;;
41077;SDS011;26823;42.662;23.352;2023-05-14T06:56:05;6.18;;;5.10;;
41077;SDS011;26823;42.662;23.352;2023-05-14T06:58:30;13.00;;;6.95;;
41077;SDS011;26823;42.662;23.352;2023-05-14T07:00:56;8.73;;;6.03;;
41077;SDS011;26823;42.662;23.352;2023-05-14T07:03:22;9.68;;;5.65;;
41077;SDS011;26823;42.662;23.352;2023-05-14T07:05:47;9.45;;;6.25;;
41077;SDS011;26823;42.662;23.352;2023-05-14T07:08:13;9.88;;;5.93;;
41077;SDS011;26823;42.662;23.352;2023-05-14T07:10:38;12.07;;;6.45;;
41077;SDS011;26823;42.662;23.352;2023-05-14T07:13:04;9.50;;;5.70;;
41077;SDS011;26823;42.662;23.352;2023-05-14T07:15:29;8.23;;;6.68;;
41077;SDS011;26823;42.662;23.352;2023-05-14T07:17:55;9.57;;;6.35;;
41077;SDS011;26823;42.662;23.352;2023-05-14T07:20:20;11.32;;;6.25;;
41077;SDS011;26823;42.662;23.352;2023-05-14T07:22:48;6.65;;;5.70;;
41077;SDS011;26823;42.662;23.352;2023-05-14T07:25:13;10.68;;;7.32;;
41077;SDS011;26823;42.662;23.352;2023-05-14T07:27:39;9.63;;;6.80;;
41077;SDS011;26823;42.662;23.352;2023-05-14T07:30:05;10.90;;;6.85;;
41077;SDS011;26823;42.662;23.352;2023-05-14T07:32:31;12.73;;;7.88;;
41077;SDS011;26823;42.662;23.352;2023-05-14T07:34:56;9.32;;;6.78;;
41077;SDS011;26823;42.662;23.352;2023-05-14T07:37:22;9.82;;;6.88;;
41077;SDS011;26823;42.662;23.352;2023-05-14T07:39:49;7.55;;;6.15;;
41077;SDS011;26823;42.662;23.352;2023-05-14T07:42:15;8.55;;;6.40;;
41077;SDS011;26823;42.662;23.352;2023-05-14T07:44:41;8.65;;;5.93;;
41077;SDS011;26823;42.662;23.352;2023-05-14T07:47:06;7.00;;;5.93;;
41077;SDS011;26823;42.662;23.352;2023-05-14T07:49:32;7.32;;;5.85;;
41077;SDS011;26823;42.662;23.352;2023-05-14T07:51:58;8.10;;;6.25;;
41077;SDS011;26823;42.662;23.352;2023-05-14T07:54:23;8.27;;;6.72;;
41077;SDS011;26823;42.662;23.352;2023-05-14T07:56:49;8.32;;;5.47;;
41077;SDS011;26823;42.662;23.352;2023-05-14T07:59:14;9.27;;;5.43;;
41077;SDS011;26823;42.662;23.352;2023-05-14T08:01:40;5.80;;;5.07;;
41077;SDS011;26823;42.662;23.352;2023-05-14T08:04:06;10.77;;;6.13;;
41077;SDS011;26823;42.662;23.352;2023-05-14T08:06:31;6.85;;;6.10;;
41077;SDS011;26823;42.662;23.352;2023-05-14T08:08:57;8.55;;;6.75;;
41077;SDS011;26823;42.662;23.352;2023-05-14T08:11:22;10.18;;;8.00;;
41077;SDS011;26823;42.662;23.352;2023-05-14T08:13:48;9.18;;;6.57;;
41077;SDS011;26823;42.662;23.352;2023-05-14T08:16:13;8.20;;;6.65;;
41077;SDS011;26823;42.662;23.352;2023-05-14T08:18:47;12.75;;;8.57;;
41077;SDS011;26823;42.662;23.352;2023-05-14T08:21:13;9.07;;;6.97;;
41077;SDS011;26823;42.662;23.352;2023-05-14T08:23:45;9.35;;;7.13;;
41077;SDS011;26823;42.662;23.352;2023-05-14T08:26:10;9.27;;;6.75;;
41077;SDS011;26823;42.662;23.352;2023-05-14T08:28:35;8.05;;;6.00;;
41077;SDS011;26823;42.662;23.352;2023-05-14T08:31:01;7.57;;;6.50;;
41077;SDS011;26823;42.662;23.352;2023-05-14T08:33:26;8.95;;;5.97;;
41077;SDS011;26823;42.662;23.352;2023-05-14T08:35:51;7.95;;;5.63;;
41077;SDS011;26823;42.662;23.352;2023-05-14T08:38:18;8.60;;;7.05;;
41077;SDS011;26823;42.662;23.352;2023-05-14T08:40:47;9.32;;;6.53;;
41077;SDS011;26823;42.662;23.352;2023-05-14T08:43:20;7.57;;;5.63;;
41077;SDS011;26823;42.662;23.352;2023-05-14T08:45:51;7.28;;;6.00;;
41077;SDS011;26823;42.662;23.352;2023-05-14T08:48:21;7.40;;;5.78;;
41077;SDS011;26823;42.662;23.352;2023-05-14T08:50:47;7.88;;;6.20;;
41077;SDS011;26823;42.662;23.352;2023-05-14T08:53:13;10.38;;;6.50;;
41077;SDS011;26823;42.662;23.352;2023-05-14T08:55:38;9.38;;;6.03;;
41077;SDS011;26823;42.662;23.352;2023-05-14T08:58:04;7.93;;;5.78;;
41077;SDS011;26823;42.662;23.352;2023-05-14T09:00:29;6.93;;;6.05;;
41077;SDS011;26823;42.662;23.352;2023-05-14T09:02:55;6.13;;;5.20;;
41077;SDS011;26823;42.662;23.352;2023-05-14T09:05:21;12.25;;;7.13;;
41077;SDS011;26823;42.662;23.352;2023-05-14T09:07:47;9.30;;;6.07;;
41077;SDS011;26823;42.662;23.352;2023-05-14T09:10:13;8.88;;;6.43;;
41077;SDS011;26823;42.662;23.352;2023-05-14T09:12:42;7.55;;;5.82;;
41077;SDS011;26823;42.662;23.352;2023-05-14T09:15:08;10.07;;;6.10;;
41077;SDS011;26823;42.662;23.352;2023-05-14T09:17:33;8.05;;;6.05;;
41077;SDS011;26823;42.662;23.352;2023-05-14T09:19:59;7.05;;;6.13;;
41077;SDS011;26823;42.662;23.352;2023-05-14T09:22:25;8.10;;;5.72;;
41077;SDS011;26823;42.662;23.352;2023-05-14T09:27:28;7.80;;;6.43;;
41077;SDS011;26823;42.662;23.352;2023-05-14T09:29:54;11.80;;;7.68;;
41077;SDS011;26823;42.662;23.352;2023-05-14T09:32:20;12.52;;;6.63;;
41077;SDS011;26823;42.662;23.352;2023-05-14T09:34:45;7.68;;;6.38;;
41077;SDS011;26823;42.662;23.352;2023-05-14T09:37:11;9.25;;;6.47;;
41077;SDS011;26823;42.662;23.352;2023-05-14T09:39:36;9.52;;;6.65;;
41077;SDS011;26823;42.662;23.352;2023-05-14T09:42:05;10.60;;;7.07;;
41077;SDS011;26823;42.662;23.352;2023-05-14T09:44:33;11.18;;;7.10;;
41077;SDS011;26823;42.662;23.352;2023-05-14T09:47:01;8.65;;;6.60;;
41077;SDS011;26823;42.662;23.352;2023-05-14T09:49:28;9.27;;;7.03;;
41077;SDS011;26823;42.662;23.352;2023-05-14T09:51:53;9.57;;;7.10;;
41077;SDS011;26823;42.662;23.352;2023-05-14T09:54:21;11.77;;;7.22;;
41077;SDS011;26823;42.662;23.352;2023-05-14T09:56:46;8.30;;;7.43;;
41077;SDS011;26823;42.662;23.352;2023-05-14T09:59:11;10.05;;;7.57;;
41077;SDS011;26823;42.662;23.352;2023-05-14T10:01:37;8.93;;;7.15;;
41077;SDS011;26823;42.662;23.352;2023-05-14T10:04:05;8.07;;;7.20;;
41077;SDS011;26823;42.662;23.352;2023-05-14T10:06:38;9.75;;;7.55;;
41077;SDS011;26823;42.662;23.352;2023-05-14T10:09:04;11.00;;;8.38;;
41077;SDS011;26823;42.662;23.352;2023-05-14T10:11:36;10.38;;;7.15;;
41077;SDS011;26823;42.662;23.352;2023-05-14T10:14:13;7.95;;;6.72;;
41077;SDS011;26823;42.662;23.352;2023-05-14T10:16:50;8.63;;;6.53;;
41077;SDS011;26823;42.662;23.352;2023-05-14T10:19:18;12.05;;;8.45;;
41077;SDS011;26823;42.662;23.352;2023-05-14T10:21:47;11.25;;;6.50;;
41077;SDS011;26823;42.662;23.352;2023-05-14T10:24:17;9.23;;;7.28;;
41077;SDS011;26823;42.662;23.352;2023-05-14T10:26:43;9.38;;;7.28;;
41077;SDS011;26823;42.662;23.352;2023-05-14T10:29:09;9.93;;;7.72;;
41077;SDS011;26823;42.662;23.352;2023-05-14T10:34:34;8.60;;;7.70;;
41077;SDS011;26823;42.662;23.352;2023-05-14T10:37:03;7.82;;;6.88;;
41077;SDS011;26823;42.662;23.352;2023-05-14T10:42:10;11.27;;;7.38;;
41077;SDS011;26823;42.662;23.352;2023-05-14T10:44:50;8.93;;;6.90;;
41077;SDS011;26823;42.662;23.352;2023-05-14T10:47:19;10.23;;;7.40;;
41077;SDS011;26823;42.662;23.352;2023-05-14T10:49:52;8.48;;;7.60;;
41077;SDS011;26823;42.662;23.352;2023-05-14T10:52:20;9.13;;;7.45;;
41077;SDS011;26823;42.662;23.352;2023-05-14T10:57:20;8.63;;;7.43;;
41077;SDS011;26823;42.662;23.352;2023-05-14T10:59:47;9.52;;;8.05;;
41077;SDS011;26823;42.662;23.352;2023-05-14T11:02:21;12.32;;;8.02;;
41077;SDS011;26823;42.662;23.352;2023-05-14T11:07:31;9.98;;;7.80;;
41077;SDS011;26823;42.662;23.352;2023-05-14T11:10:05;8.85;;;7.63;;
41077;SDS011;26823;42.662;23.352;2023-05-14T11:12:39;10.45;;;8.30;;
41077;SDS011;26823;42.662;23.352;2023-05-14T11:15:10;10.10;;;8.63;;
41077;SDS011;26823;42.662;23.352;2023-05-14T11:17:39;10.05;;;8.68;;
41077;SDS011;26823;42.662;23.352;2023-05-14T11:20:05;8.23;;;7.13;;
41077;SDS011;26823;42.662;23.352;2023-05-14T11:22:33;8.93;;;8.02;;
41077;SDS011;26823;42.662;23.352;2023-05-14T11:24:59;10.05;;;8.75;;
41077;SDS011;26823;42.662;23.352;2023-05-14T11:27:25;14.23;;;9.90;;
41077;SDS011;26823;42.662;23.352;2023-05-14T11:29:51;15.60;;;10.98;;
41077;SDS011;26823;42.662;23.352;2023-05-14T11:32:17;14.10;;;10.20;;
41077;SDS011;26823;42.662;23.352;2023-05-14T11:34:43;10.93;;;9.55;;
41077;SDS011;26823;42.662;23.352;2023-05-14T11:37:10;13.15;;;9.90;;
41077;SDS011;26823;42.662;23.352;2023-05-14T11:39:37;12.20;;;9.25;;
41077;SDS011;26823;42.662;23.352;2023-05-14T11:42:10;16.08;;;10.25;;
41077;SDS011;26823;42.662;23.352;2023-05-14T11:44:39;10.65;;;9.43;;
41077;SDS011;26823;42.662;23.352;2023-05-14T11:47:06;11.13;;;9.65;;
41077;SDS011;26823;42.662;23.352;2023-05-14T11:49:32;11.55;;;9.40;;
41077;SDS011;26823;42.662;23.352;2023-05-14T11:52:00;9.50;;;8.57;;
41077;SDS011;26823;42.662;23.352;2023-05-14T11:54:27;13.90;;;9.57;;
41077;SDS011;26823;42.662;23.352;2023-05-14T11:56:56;14.50;;;9.57;;
41077;SDS011;26823;42.662;23.352;2023-05-14T11:59:29;13.05;;;9.20;;
41077;SDS011;26823;42.662;23.352;2023-05-14T12:01:56;14.50;;;11.13;;
41077;SDS011;26823;42.662;23.352;2023-05-14T12:04:28;28.80;;;13.75;;
41077;SDS011;26823;42.662;23.352;2023-05-14T12:06:56;13.15;;;10.23;;
41077;SDS011;26823;42.662;23.352;2023-05-14T12:09:22;10.77;;;8.13;;
41077;SDS011;26823;42.662;23.352;2023-05-14T12:11:49;8.10;;;7.22;;
41077;SDS011;26823;42.662;23.352;2023-05-14T12:14:19;10.07;;;7.55;;
41077;SDS011;26823;42.662;23.352;2023-05-14T12:16:46;8.63;;;7.75;;
41077;SDS011;26823;42.662;23.352;2023-05-14T12:19:13;8.27;;;7.47;;
41077;SDS011;26823;42.662;23.352;2023-05-14T12:21:44;8.70;;;7.78;;
41077;SDS011;26823;42.662;23.352;2023-05-14T12:24:15;9.38;;;8.35;;
41077;SDS011;26823;42.662;23.352;2023-05-14T12:26:48;7.60;;;6.90;;
41077;SDS011;26823;42.662;23.352;2023-05-14T12:29:15;8.13;;;7.32;;
41077;SDS011;26823;42.662;23.352;2023-05-14T12:31:44;9.55;;;7.55;;
41077;SDS011;26823;42.662;23.352;2023-05-14T12:34:11;7.90;;;7.10;;
41077;SDS011;26823;42.662;23.352;2023-05-14T12:36:36;7.55;;;6.78;;
41077;SDS011;26823;42.662;23.352;2023-05-14T12:39:02;7.90;;;7.10;;
41077;SDS011;26823;42.662;23.352;2023-05-14T12:41:28;7.75;;;7.03;;
41077;SDS011;26823;42.662;23.352;2023-05-14T12:43:54;8.25;;;6.93;;
41077;SDS011;26823;42.662;23.352;2023-05-14T12:46:20;7.15;;;6.25;;
41077;SDS011;26823;42.662;23.352;2023-05-14T12:48:45;9.40;;;7.18;;
41077;SDS011;26823;42.662;23.352;2023-05-14T12:51:11;8.07;;;7.13;;
41077;SDS011;26823;42.662;23.352;2023-05-14T12:53:37;8.63;;;7.70;;
41077;SDS011;26823;42.662;23.352;2023-05-14T12:56:02;8.35;;;7.55;;
41077;SDS011;26823;42.662;23.352;2023-05-14T12:58:28;8.90;;;8.05;;
41077;SDS011;26823;42.662;23.352;2023-05-14T13:00:53;9.00;;;8.10;;
41077;SDS011;26823;42.662;23.352;2023-05-14T13:03:19;10.38;;;8.40;;
41077;SDS011;26823;42.662;23.352;2023-05-14T13:05:45;9.07;;;8.18;;
41077;SDS011;26823;42.662;23.352;2023-05-14T13:08:10;8.88;;;7.78;;
41077;SDS011;26823;42.662;23.352;2023-05-14T13:10:38;9.45;;;7.82;;
41077;SDS011;26823;42.662;23.352;2023-05-14T13:13:04;9.82;;;8.10;;
41077;SDS011;26823;42.662;23.352;2023-05-14T13:15:30;9.07;;;8.02;;
41077;SDS011;26823;42.662;23.352;2023-05-14T13:17:57;8.75;;;7.85;;
41077;SDS011;26823;42.662;23.352;2023-05-14T13:20:23;11.05;;;8.60;;
41077;SDS011;26823;42.662;23.352;2023-05-14T13:22:51;9.70;;;7.72;;
41077;SDS011;26823;42.662;23.352;2023-05-14T13:25:23;12.60;;;8.18;;
41077;SDS011;26823;42.662;23.352;2023-05-14T13:27:48;10.57;;;8.10;;
41077;SDS011;26823;42.662;23.352;2023-05-14T13:30:18;9.75;;;8.10;;
41077;SDS011;26823;42.662;23.352;2023-05-14T13:32:45;9.18;;;8.10;;
41077;SDS011;26823;42.662;23.352;2023-05-14T13:35:11;9.13;;;7.43;;
41077;SDS011;26823;42.662;23.352;2023-05-14T13:37:37;10.38;;;8.80;;
41077;SDS011;26823;42.662;23.352;2023-05-14T13:40:03;9.77;;;8.77;;
41077;SDS011;26823;42.662;23.352;2023-05-14T13:42:32;9.68;;;8.10;;
41077;SDS011;26823;42.662;23.352;2023-05-14T13:44:58;12.75;;;7.75;;
41077;SDS011;26823;42.662;23.352;2023-05-14T13:47:24;10.65;;;8.32;;
41077;SDS011;26823;42.662;23.352;2023-05-14T13:49:53;10.57;;;9.32;;
41077;SDS011;26823;42.662;23.352;2023-05-14T13:52:19;9.85;;;8.82;;
41077;SDS011;26823;42.662;23.352;2023-05-14T13:54:45;9.80;;;8.80;;
41077;SDS011;26823;42.662;23.352;2023-05-14T13:57:11;10.43;;;9.05;;
41077;SDS011;26823;42.662;23.352;2023-05-14T13:59:36;10.85;;;9.63;;
41077;SDS011;26823;42.662;23.352;2023-05-14T14:02:02;13.65;;;9.63;;
41077;SDS011;26823;42.662;23.352;2023-05-14T14:04:27;9.98;;;8.98;;
41077;SDS011;26823;42.662;23.352;2023-05-14T14:06:53;11.18;;;9.23;;
41077;SDS011;26823;42.662;23.352;2023-05-14T14:09:19;11.43;;;10.02;;
41077;SDS011;26823;42.662;23.352;2023-05-14T14:11:45;12.77;;;10.45;;
41077;SDS011;26823;42.662;23.352;2023-05-14T14:14:10;10.18;;;8.80;;
41077;SDS011;26823;42.662;23.352;2023-05-14T14:16:36;15.65;;;10.00;;
41077;SDS011;26823;42.662;23.352;2023-05-14T14:19:01;12.27;;;10.40;;
41077;SDS011;26823;42.662;23.352;2023-05-14T14:21:27;11.32;;;9.45;;
41077;SDS011;26823;42.662;23.352;2023-05-14T14:23:52;15.50;;;10.88;;
41077;SDS011;26823;42.662;23.352;2023-05-14T14:26:17;12.90;;;10.70;;
41077;SDS011;26823;42.662;23.352;2023-05-14T14:28:43;12.13;;;10.55;;
41077;SDS011;26823;42.662;23.352;2023-05-14T14:31:08;12.88;;;10.38;;
41077;SDS011;26823;42.662;23.352;2023-05-14T14:33:34;12.15;;;10.38;;
41077;SDS011;26823;42.662;23.352;2023-05-14T14:36:00;11.57;;;10.15;;
41077;SDS011;26823;42.662;23.352;2023-05-14T14:38:25;14.45;;;11.00;;
41077;SDS011;26823;42.662;23.352;2023-05-14T14:40:51;12.75;;;10.82;;
41077;SDS011;26823;42.662;23.352;2023-05-14T14:43:16;13.77;;;11.40;;
41077;SDS011;26823;42.662;23.352;2023-05-14T14:45:41;16.98;;;12.10;;
41077;SDS011;26823;42.662;23.352;2023-05-14T14:48:22;14.38;;;10.82;;